Observation data for Turkey on 05/25/2019      Previous  Date  Next       Current Mesonet Observations  Soil Data  Daily Summary Page  Observations in Plain Language
KTUR 250500Z 15009KT 19/16 A2997 RMK A01 T01860164  RH  089%=      5-min Rain = 0
KTUR 250505Z 14010KT 19/16 A2996 RMK A01 T01850164  RH  089%=      5-min Rain = 0
KTUR 250510Z 14012KT 19/16 A2996 RMK A01 T01850164  RH  090%=      5-min Rain = 0
KTUR 250515Z 15011KT 19/16 A2996 RMK A01 T01860164  RH  089%=      5-min Rain = 0
KTUR 250520Z 15012KT 19/16 A2996 RMK A01 T01880164  RH  088%=      5-min Rain = 0
KTUR 250525Z 15011KT 19/17 A2996 RMK A01 T01910165  RH  087%=      5-min Rain = 0
KTUR 250530Z 15011KT 19/16 A2996 RMK A01 T01880164  RH  088%=      5-min Rain = 0
KTUR 250535Z 14011KT 19/16 A2996 RMK A01 T01890164  RH  087%=      5-min Rain = 0
KTUR 250540Z 14011KT 19/16 A2996 RMK A01 T01870164  RH  088%=      5-min Rain = 0
KTUR 250545Z 14011KT 19/16 A2996 RMK A01 T01860164  RH  089%=      5-min Rain = 0
KTUR 250550Z 14011KT 19/16 A2996 RMK A01 T01870164  RH  088%=      5-min Rain = 0
KTUR 250555Z 14010KT 19/16 A2995 RMK A01 T01860164  RH  089%=      5-min Rain = 0
KTUR 250600Z 14010KT 18/16 A2995 RMK A01 T01840163  RH  090%=      5-min Rain = 0
KTUR 250605Z 15011KT 18/16 A2996 RMK A01 T01820163  RH  091%=      5-min Rain = 0
KTUR 250610Z 15011KT 18/16 A2996 RMK A01 T01830163  RH  090%=      5-min Rain = 0
KTUR 250615Z 15010KT 18/16 A2996 RMK A01 T01830163  RH  090%=      5-min Rain = 0
KTUR 250620Z 15010KT 18/16 A2995 RMK A01 T01820163  RH  091%=      5-min Rain = 0
KTUR 250625Z 15011KT 18/16 A2996 RMK A01 T01830163  RH  090%=      5-min Rain = 0
KTUR 250630Z 15010KT 18/16 A2995 RMK A01 T01830163  RH  090%=      5-min Rain = 0
KTUR 250635Z 15010KT 18/16 A2995 RMK A01 T01830163  RH  090%=      5-min Rain = 0
KTUR 250640Z 14010KT 18/16 A2995 RMK A01 T01820162  RH  090%=      5-min Rain = 0
KTUR 250645Z 14010KT 18/16 A2995 RMK A01 T01820162  RH  090%=      5-min Rain = 0
KTUR 250650Z 14011KT 18/16 A2995 RMK A01 T01830162  RH  090%=      5-min Rain = 0
KTUR 250655Z 14011KT 18/16 A2995 RMK A01 T01830162  RH  089%=      5-min Rain = 0
KTUR 250700Z 13011KT 18/16 A2995 RMK A01 T01820161  RH  090%=      5-min Rain = 0
KTUR 250705Z 13011KT 18/16 A2995 RMK A01 T01810162  RH  091%=      5-min Rain = 0
KTUR 250710Z 13011KT 18/16 A2994 RMK A01 T01800161  RH  090%=      5-min Rain = 0
KTUR 250715Z 13011KT 18/16 A2994 RMK A01 T01800161  RH  091%=      5-min Rain = 0
KTUR 250720Z 13011KT 18/16 A2995 RMK A01 T01800162  RH  091%=      5-min Rain = 0
KTUR 250725Z 14011KT 18/16 A2995 RMK A01 T01790162  RH  092%=      5-min Rain = 0
KTUR 250730Z 14012KT 18/16 A2995 RMK A01 T01790162  RH  092%=      5-min Rain = 0
KTUR 250735Z 13012KT 18/16 A2995 RMK A01 T01790163  RH  092%=      5-min Rain = 0
KTUR 250740Z 13012KT 18/16 A2995 RMK A01 T01780163  RH  093%=      5-min Rain = 0
KTUR 250745Z 14013KT 18/16 A2995 RMK A01 T01770163  RH  094%=      5-min Rain = 0
KTUR 250750Z 14012KT 18/16 A2994 RMK A01 T01750163  RH  094%=      5-min Rain = 0
KTUR 250755Z 14013KT 18/16 A2994 RMK A01 T01750162  RH  095%=      5-min Rain = 0
KTUR 250800Z 14013KT 17/16 A2994 RMK A01 T01740163  RH  095%=      5-min Rain = 0
KTUR 250805Z 14014KT 17/16 A2993 RMK A01 T01730163  RH  096%=      5-min Rain = 0
KTUR 250810Z 14014KT 17/16 A2993 RMK A01 T01730163  RH  096%=      5-min Rain = 0
KTUR 250815Z 14015KT 17/16 A2993 RMK A01 T01730164  RH  096%=      5-min Rain = 0
KTUR 250820Z 14015KT 17/16 A2993 RMK A01 T01730164  RH  097%=      5-min Rain = 0
KTUR 250825Z 14015KT 17/17 A2993 RMK A01 T01730165  RH  097%=      5-min Rain = 0
KTUR 250830Z 14015KT 17/17 A2993 RMK A01 T01730165  RH  097%=      5-min Rain = 0
KTUR 250835Z 13015KT 17/17 A2993 RMK A01 T01720165  RH  098%=      5-min Rain = 0
KTUR 250840Z 13013KT 17/17 A2993 RMK A01 T01730166  RH  098%=      5-min Rain = 0
KTUR 250845Z 13013KT 17/17 A2993 RMK A01 T01730167  RH  098%=      5-min Rain = 0
KTUR 250850Z 13013G18KT 17/17 A2993 RMK A01 T01730167  RH  099%=      5-min Rain = 0
KTUR 250855Z 13013KT 17/17 A2993 RMK A01 T01730168  RH  099%=      5-min Rain = 0
KTUR 250900Z 13012KT 17/17 A2993 RMK A01 T01740169  RH  099%=      5-min Rain = 0
KTUR 250905Z 13011KT 18/17 A2993 RMK A01 T01750169  RH  099%=      5-min Rain = 0
KTUR 250910Z 13011KT 18/17 A2993 RMK A01 T01750170  RH  099%=      5-min Rain = 0
KTUR 250915Z 13010KT 18/17 A2993 RMK A01 T01760170  RH  099%=      5-min Rain = 0
KTUR 250920Z 13009KT 18/17 A2993 RMK A01 T01760171  RH  099%=      5-min Rain = 0
KTUR 250925Z 13009KT 18/17 A2993 RMK A01 T01770171  RH  099%=      5-min Rain = 0
KTUR 250930Z 13008KT 18/17 A2994 RMK A01 T01770172  RH  099%=      5-min Rain = 0
KTUR 250935Z 13008KT 18/17 A2994 RMK A01 T01770172  RH  099%=      5-min Rain = 0
KTUR 250940Z 13007KT 18/17 A2994 RMK A01 T01780173  RH  099%=      5-min Rain = 0
KTUR 250945Z 13007KT 18/17 A2994 RMK A01 T01780173  RH  099%=      5-min Rain = 0
KTUR 250950Z 13007KT 18/17 A2994 RMK A01 T01790173  RH  099%=      5-min Rain = 0
KTUR 250955Z 13008KT 18/17 A2994 RMK A01 T01790174  RH  099%=      5-min Rain = 0
KTUR 251000Z 13006KT 18/17 A2994 RMK A01 T01790174  RH  099%=      5-min Rain = 0
KTUR 251005Z 13006KT 18/18 A2995 RMK A01 T01800175  RH  099%=      5-min Rain = 0
KTUR 251010Z 13005KT 18/18 A2995 RMK A01 T01800175  RH  099%=      5-min Rain = 0
KTUR 251015Z 13004KT 18/18 A2995 RMK A01 T01810175  RH  099%=      5-min Rain = 0
KTUR 251020Z 13004KT 18/18 A2995 RMK A01 T01810176  RH  099%=      5-min Rain = 0
KTUR 251025Z 12005KT 18/18 A2995 RMK A01 T01810176  RH  099%=      5-min Rain = 0
KTUR 251030Z 12006KT 18/18 A2995 RMK A01 T01820176  RH  099%=      5-min Rain = 0
KTUR 251035Z 13006KT 18/18 A2995 RMK A01 T01820177  RH  099%=      5-min Rain = 0
KTUR 251040Z 12007KT 18/18 A2995 RMK A01 T01830177  RH  099%=      5-min Rain = 0
KTUR 251045Z 13007KT 18/18 A2995 RMK A01 T01830178  RH  099%=      5-min Rain = 0
KTUR 251050Z 13006KT 18/18 A2995 RMK A01 T01830178  RH  099%=      5-min Rain = 0
KTUR 251055Z 13005KT 18/18 A2996 RMK A01 T01840179  RH  099%=      5-min Rain = 0
KTUR 251100Z 13005KT 18/18 A2996 RMK A01 T01840179  RH  099%=      5-min Rain = 0
KTUR 251105Z 13005KT 18/18 A2996 RMK A01 T01840179  RH  099%=      5-min Rain = 0
KTUR 251110Z 13004KT 19/18 A2996 RMK A01 T01850179  RH  099%=      5-min Rain = 0
KTUR 251115Z 12004KT 18/18 A2996 RMK A01 T01840179  RH  099%=      5-min Rain = 0
KTUR 251120Z 12004KT 18/18 A2996 RMK A01 T01840179  RH  099%=      5-min Rain = 0
KTUR 251125Z 12004KT 18/18 A2996 RMK A01 T01840179  RH  099%=      5-min Rain = 0
KTUR 251130Z 12004KT 19/18 A2996 RMK A01 T01850179  RH  099%=      5-min Rain = 0
KTUR 251135Z 12005KT 19/18 A2996 RMK A01 T01850179  RH  099%=      5-min Rain = 0
KTUR 251140Z 11004KT 19/18 A2996 RMK A01 T01850179  RH  099%=      5-min Rain = 0
KTUR 251145Z 11004KT 19/18 A2996 RMK A01 T01850179  RH  099%=      5-min Rain = 0
KTUR 251150Z 11004KT 19/18 A2996 RMK A01 T01850179  RH  099%=      5-min Rain = 0
KTUR 251155Z 11004KT 19/18 A2997 RMK A01 T01850180  RH  099%=      5-min Rain = 0
KTUR 251200Z 11005KT 19/18 A2997 RMK A01 T01850180  RH  099%=      5-min Rain = 0
KTUR 251205Z 11005KT 19/18 A2997 RMK A01 T01850180  RH  099%=      5-min Rain = 0
KTUR 251210Z 12004KT 19/18 A2997 RMK A01 T01850180  RH  099%=      5-min Rain = 0
KTUR 251215Z 11004KT 19/18 A2997 RMK A01 T01860181  RH  099%=      5-min Rain = 0
KTUR 251220Z 11005KT 19/18 A2998 RMK A01 T01860181  RH  099%=      5-min Rain = 0
KTUR 251225Z 10005KT 19/18 A2998 RMK A01 T01870182  RH  099%=      5-min Rain = 0
KTUR 251230Z 10006KT 19/18 A2998 RMK A01 T01870182  RH  099%=      5-min Rain = 0
KTUR 251235Z 11005KT 19/18 A2998 RMK A01 T01870182  RH  099%=      5-min Rain = 0
KTUR 251240Z 10005KT 19/18 A2998 RMK A01 T01870182  RH  099%=      5-min Rain = 0
KTUR 251245Z 10005KT 19/18 A2998 RMK A01 T01870183  RH  100%=      5-min Rain = 0
KTUR 251250Z 10005KT 19/18 A2999 RMK A01 T01880183  RH  100%=      5-min Rain = 0
KTUR 251255Z 11005KT 19/18 A2999 RMK A01 T01880184  RH  100%=      5-min Rain = 0
KTUR 251300Z 11006KT 19/19 A2999 RMK A01 T01890185  RH  100%=      5-min Rain = 0
KTUR 251305Z 12007KT 19/19 A2999 RMK A01 T01890185  RH  100%=      5-min Rain = 0
KTUR 251310Z 12007KT 19/19 A2999 RMK A01 T01900185  RH  100%=      5-min Rain = 0
KTUR 251315Z 12007KT 19/19 A2999 RMK A01 T01900186  RH  100%=      5-min Rain = 0
KTUR 251320Z 11007KT 19/19 A2999 RMK A01 T01920187  RH  100%=      5-min Rain = 0
KTUR 251325Z 11007KT 19/19 A2999 RMK A01 T01930188  RH  099%=      5-min Rain = 0
KTUR 251330Z 11007KT 19/19 A2999 RMK A01 T01940188  RH  099%=      5-min Rain = 0
KTUR 251335Z 11006KT 20/19 A2999 RMK A01 T01950188  RH  099%=      5-min Rain = 0
KTUR 251340Z 11006KT 20/19 A2999 RMK A01 T01950188  RH  098%=      5-min Rain = 0
KTUR 251345Z 11006KT 20/19 A2999 RMK A01 T01950187  RH  098%=      5-min Rain = 0
KTUR 251350Z 12006KT 20/19 A30 RMK A01 T01960188  RH  098%=      5-min Rain = 0
KTUR 251355Z 11006KT 20/19 A30 RMK A01 T01960188  RH  098%=      5-min Rain = 0
KTUR 251400Z 12006KT 20/19 A30 RMK A01 T01970188  RH  097%=      5-min Rain = 0
KTUR 251405Z 12006KT 20/19 A30 RMK A01 T01980189  RH  097%=      5-min Rain = 0
KTUR 251410Z 12006KT 20/19 A30 RMK A01 T01990189  RH  097%=      5-min Rain = 0
KTUR 251415Z 12006KT 20/19 A30 RMK A01 T02000190  RH  096%=      5-min Rain = 0
KTUR 251420Z 13006KT 20/19 A30 RMK A01 T02020191  RH  096%=      5-min Rain = 0
KTUR 251425Z 13006KT 20/19 A30 RMK A01 T02030191  RH  095%=      5-min Rain = 0
KTUR 251430Z 13007KT 20/19 A30 RMK A01 T02040192  RH  095%=      5-min Rain = 0
KTUR 251435Z 13007KT 21/19 A30 RMK A01 T02050192  RH  095%=      5-min Rain = 0
KTUR 251440Z 14008KT 21/19 A30 RMK A01 T02060193  RH  095%=      5-min Rain = 0
KTUR 251445Z 14009KT 21/19 A30 RMK A01 T02090193  RH  093%=      5-min Rain = 0
KTUR 251450Z 14009KT 21/19 A3001 RMK A01 T02100194  RH  093%=      5-min Rain = 0
KTUR 251455Z 14010KT 21/20 A30 RMK A01 T02130195  RH  092%=      5-min Rain = 0
KTUR 251500Z 15010KT 21/20 A3001 RMK A01 T02140196  RH  092%=      5-min Rain = 0
KTUR 251505Z 15010KT 22/20 A30 RMK A01 T02160197  RH  092%=      5-min Rain = 0
KTUR 251510Z 15009KT 22/20 A30 RMK A01 T02160197  RH  091%=      5-min Rain = 0
KTUR 251515Z 15011KT 22/20 A30 RMK A01 T02170197  RH  091%=      5-min Rain = 0
KTUR 251520Z 15010KT 22/20 A30 RMK A01 T02200199  RH  090%=      5-min Rain = 0
KTUR 251525Z 15011KT 22/20 A30 RMK A01 T02200197  RH  089%=      5-min Rain = 0
KTUR 251530Z 14010KT 22/20 A30 RMK A01 T02200197  RH  089%=      5-min Rain = 0
KTUR 251535Z 14009KT 22/20 A30 RMK A01 T02200199  RH  090%=      5-min Rain = 0
KTUR 251540Z 15009KT 22/20 A3001 RMK A01 T02210199  RH  090%=      5-min Rain = 0
KTUR 251545Z 15012KT 22/20 A30 RMK A01 T02220198  RH  088%=      5-min Rain = 0
KTUR 251550Z 15009KT 22/20 A30 RMK A01 T02240199  RH  088%=      5-min Rain = 0
KTUR 251555Z 15011KT 23/20 A30 RMK A01 T02250199  RH  088%=      5-min Rain = 0
KTUR 251600Z 15010KT 23/20 A30 RMK A01 T02260199  RH  087%=      5-min Rain = 0
KTUR 251605Z 15008KT 23/20 A30 RMK A01 T02260200  RH  088%=      5-min Rain = 0
KTUR 251610Z 14009KT 23/20 A30 RMK A01 T02270200  RH  087%=      5-min Rain = 0
KTUR 251615Z 14007KT 23/20 A30 RMK A01 T02280201  RH  087%=      5-min Rain = 0
KTUR 251620Z 14010G15KT 23/20 A30 RMK A01 T02300202  RH  087%=      5-min Rain = 0
KTUR 251625Z 14013KT 23/20 A2999 RMK A01 T02340203  RH  085%=      5-min Rain = 0
KTUR 251630Z 14016KT 24/20 A30 RMK A01 T02360202  RH  084%=      5-min Rain = 0
KTUR 251635Z 14014KT 24/20 A2999 RMK A01 T02350203  RH  085%=      5-min Rain = 0
KTUR 251640Z 13013KT 24/21 A2999 RMK A01 T02390206  RH  084%=      5-min Rain = 0
KTUR 251645Z 13015G20KT 24/21 A2999 RMK A01 T02430207  RH  083%=      5-min Rain = 0
KTUR 251650Z 14016KT 24/21 A2999 RMK A01 T02410206  RH  083%=      5-min Rain = 0
KTUR 251655Z 14015KT 24/21 A2999 RMK A01 T02410205  RH  083%=      5-min Rain = 0
KTUR 251700Z 14015KT 24/21 A30 RMK A01 T02390205  RH  083%=      5-min Rain = 0
KTUR 251705Z 14015G20KT 24/20 A30 RMK A01 T02390203  RH  083%=      5-min Rain = 0
KTUR 251710Z 14015KT 24/20 A30 RMK A01 T02380203  RH  083%=      5-min Rain = 0
KTUR 251715Z 14016G21KT 24/20 A30 RMK A01 T02390201  RH  081%=      5-min Rain = 0
KTUR 251720Z 15015KT 24/20 A30 RMK A01 T02420202  RH  081%=      5-min Rain = 0
KTUR 251725Z 15015KT 24/20 A30 RMK A01 T02420202  RH  080%=      5-min Rain = 0
KTUR 251730Z 14014KT 24/20 A30 RMK A01 T02420204  RH  082%=      5-min Rain = 0
KTUR 251735Z 14014KT 24/20 A2999 RMK A01 T02420203  RH  081%=      5-min Rain = 0
KTUR 251740Z 15014KT 24/20 A2999 RMK A01 T02420203  RH  081%=      5-min Rain = 0
KTUR 251745Z 15014KT 24/20 A2999 RMK A01 T02420203  RH  081%=      5-min Rain = 0
KTUR 251750Z 15016KT 24/20 A2999 RMK A01 T02420202  RH  081%=      5-min Rain = 0
KTUR 251755Z 15016KT 24/20 A2999 RMK A01 T02410201  RH  081%=      5-min Rain = 0
KTUR 251800Z 15014KT 24/20 A2999 RMK A01 T02400201  RH  081%=      5-min Rain = 0
KTUR 251805Z 14015KT 24/20 A2998 RMK A01 T02400201  RH  081%=      5-min Rain = 0
KTUR 251810Z 14013KT 24/20 A2998 RMK A01 T02410203  RH  082%=      5-min Rain = 0
KTUR 251815Z 14015KT 24/20 A2998 RMK A01 T02430202  RH  080%=      5-min Rain = 0
KTUR 251820Z 15014G19KT 25/20 A2998 RMK A01 T02460204  RH  080%=      5-min Rain = 0
KTUR 251825Z 15015KT 24/20 A2998 RMK A01 T02440202  RH  080%=      5-min Rain = 0
KTUR 251830Z 14014KT 24/20 A2998 RMK A01 T02410202  RH  081%=      5-min Rain = 0
KTUR 251835Z 15012KT 24/20 A2998 RMK A01 T02400202  RH  082%=      5-min Rain = 0
KTUR 251840Z 14013KT 24/20 A2998 RMK A01 T02400202  RH  082%=      5-min Rain = 0
KTUR 251845Z 14013KT 24/20 A2998 RMK A01 T02390201  RH  081%=      5-min Rain = 0
KTUR 251850Z 14011KT 24/20 A2998 RMK A01 T02400203  RH  082%=      5-min Rain = 0
KTUR 251855Z 14012KT 24/20 A2998 RMK A01 T02390202  RH  082%=      5-min Rain = 0
KTUR 251900Z 14011KT 24/20 A2997 RMK A01 T02400203  RH  082%=      5-min Rain = 0
KTUR 251905Z 15012KT 24/20 A2997 RMK A01 T02400202  RH  082%=      5-min Rain = 0
KTUR 251910Z 15012KT 24/20 A2997 RMK A01 T02410202  RH  081%=      5-min Rain = 0
KTUR 251915Z 15012KT 24/20 A2996 RMK A01 T02410202  RH  081%=      5-min Rain = 0
KTUR 251920Z 15011KT 24/20 A2996 RMK A01 T02400203  RH  082%=      5-min Rain = 0
KTUR 251925Z 14011KT 24/20 A2995 RMK A01 T02400203  RH  082%=      5-min Rain = 0
KTUR 251930Z 13011KT 24/20 A2995 RMK A01 T02390203  RH  082%=      5-min Rain = 0
KTUR 251935Z 13010KT 24/20 A2995 RMK A01 T02390204  RH  083%=      5-min Rain = 0
KTUR 251940Z 13012KT 24/20 A2995 RMK A01 T02390204  RH  083%=      5-min Rain = 0
KTUR 251945Z 13010KT 24/20 A2995 RMK A01 T02390204  RH  083%=      5-min Rain = 0
KTUR 251950Z 13009KT 24/20 A2995 RMK A01 T02390203  RH  083%=      5-min Rain = 0
KTUR 251955Z 12008KT 24/20 A2995 RMK A01 T02380203  RH  083%=      5-min Rain = 0
KTUR 252000Z 12007KT 24/20 A2994 RMK A01 T02380204  RH  084%=      5-min Rain = 0
KTUR 252005Z 13007KT 24/21 A2994 RMK A01 T02370205  RH  085%=      5-min Rain = 0
KTUR 252010Z 12009KT 24/21 A2993 RMK A01 T02370205  RH  085%=      5-min Rain = 0
KTUR 252015Z 12008KT 24/21 A2993 RMK A01 T02360206  RH  086%=      5-min Rain = 0
KTUR 252020Z 12008KT 24/21 A2992 RMK A01 T02350206  RH  086%=      5-min Rain = 0
KTUR 252025Z 14009KT 24/21 A2993 RMK A01 T02350206  RH  086%=      5-min Rain = 0
KTUR 252030Z 15010KT 24/21 A2993 RMK A01 T02370205  RH  085%=      5-min Rain = 0
KTUR 252035Z 15010KT 24/20 A2994 RMK A01 T02370204  RH  084%=      5-min Rain = 0
KTUR 252040Z 15010KT 24/20 A2994 RMK A01 T02380202  RH  083%=      5-min Rain = 0
KTUR 252045Z 15011G17KT 24/20 A2994 RMK A01 T02390201  RH  082%=      5-min Rain = 0
KTUR 252050Z 15010KT 24/20 A2993 RMK A01 T02380202  RH  082%=      5-min Rain = 0
KTUR 252055Z 14010KT 24/20 A2993 RMK A01 T02370202  RH  083%=      5-min Rain = 0
KTUR 252100Z 14011KT 24/20 A2993 RMK A01 T02380201  RH  082%=      5-min Rain = 0
KTUR 252105Z 15010KT 24/20 A2993 RMK A01 T02390201  RH  082%=      5-min Rain = 0
KTUR 252110Z 16010KT 24/20 A2993 RMK A01 T02380202  RH  083%=      5-min Rain = 0
KTUR 252115Z 15012KT 24/20 A2992 RMK A01 T02390202  RH  082%=      5-min Rain = 0
KTUR 252120Z 15011KT 24/20 A2992 RMK A01 T02400203  RH  082%=      5-min Rain = 0
KTUR 252125Z 15010KT 24/20 A2992 RMK A01 T02400204  RH  083%=      5-min Rain = 0
KTUR 252130Z 15010KT 24/21 A2992 RMK A01 T02410205  RH  083%=      5-min Rain = 0
KTUR 252135Z 15010KT 24/21 A2992 RMK A01 T02420205  RH  082%=      5-min Rain = 0
KTUR 252140Z 15010KT 24/21 A2991 RMK A01 T02440206  RH  082%=      5-min Rain = 0
KTUR 252145Z 15008KT 25/21 A2991 RMK A01 T02450207  RH  082%=      5-min Rain = 0
KTUR 252150Z 14008KT 25/21 A299 RMK A01 T02460208  RH  082%=      5-min Rain = 0
KTUR 252155Z 15009KT 25/21 A299 RMK A01 T02480207  RH  081%=      5-min Rain = 0
KTUR 252200Z 15009KT 25/21 A299 RMK A01 T02490208  RH  080%=      5-min Rain = 0
KTUR 252205Z 15010KT 25/21 A299 RMK A01 T02500207  RH  080%=      5-min Rain = 0
KTUR 252210Z 15012KT 25/21 A299 RMK A01 T02510206  RH  079%=      5-min Rain = 0
KTUR 252215Z 14013KT 25/21 A2989 RMK A01 T02510205  RH  078%=      5-min Rain = 0
KTUR 252220Z 15013KT 25/21 A299 RMK A01 T02500205  RH  078%=      5-min Rain = 0
KTUR 252225Z 15012KT 25/20 A2991 RMK A01 T02500204  RH  078%=      5-min Rain = 0
KTUR 252230Z 15013KT 25/20 A299 RMK A01 T02500204  RH  078%=      5-min Rain = 0
KTUR 252235Z 14012G17KT 25/20 A2989 RMK A01 T02490204  RH  078%=      5-min Rain = 0
KTUR 252240Z 13012KT 25/20 A2989 RMK A01 T02480204  RH  079%=      5-min Rain = 0
KTUR 252245Z 14010KT 25/20 A2989 RMK A01 T02470204  RH  079%=      5-min Rain = 0
KTUR 252250Z 14011KT 25/20 A299 RMK A01 T02480204  RH  079%=      5-min Rain = 0
KTUR 252255Z 14012KT 25/20 A2989 RMK A01 T02490203  RH  078%=      5-min Rain = 0
KTUR 252300Z 14012KT 25/20 A299 RMK A01 T02480204  RH  078%=      5-min Rain = 0
KTUR 252305Z 13010KT 25/20 A299 RMK A01 T02470204  RH  079%=      5-min Rain = 0
KTUR 252310Z 13011KT 25/20 A299 RMK A01 T02460204  RH  080%=      5-min Rain = 0
KTUR 252315Z 13012KT 24/20 A299 RMK A01 T02440204  RH  081%=      5-min Rain = 0
KTUR 252320Z 14010KT 25/20 A2991 RMK A01 T02460204  RH  080%=      5-min Rain = 0
KTUR 252325Z 12011KT 25/20 A2989 RMK A01 T02460204  RH  080%=      5-min Rain = 0
KTUR 252330Z 11009KT 25/20 A2988 RMK A01 T02460204  RH  080%=      5-min Rain = 0
KTUR 252335Z 12010KT 25/20 A299 RMK A01 T02450204  RH  080%=      5-min Rain = 0
KTUR 252340Z 12009KT 25/20 A2991 RMK A01 T02460204  RH  080%=      5-min Rain = 0
KTUR 252345Z 11008KT 24/20 A299 RMK A01 T02440204  RH  081%=      5-min Rain = 0
KTUR 252350Z 13008KT 24/20 A2991 RMK A01 T02430204  RH  081%=      5-min Rain = 0
KTUR 252355Z 14007KT 24/20 A2992 RMK A01 T02410204  RH  082%=      5-min Rain = 0
KTUR 260000Z 15008KT 24/21 A2993 RMK A01 T02410205  RH  082%=      5-min Rain = 0
KTUR 260005Z 22012G19KT 24/20 A2993 RMK A01 T02390200  RH  081%=      5-min Rain = 0
KTUR 260010Z 26013G19KT 23/17 A2993 RMK A01 T02260166  RH  070%=      5-min Rain = 0.01
KTUR 260015Z 25014G20KT 21/16 A2993 RMK A01 T02120161  RH  074%=      5-min Rain = 0
KTUR 260020Z 24011G16KT 21/17 A2994 RMK A01 T02060166  RH  080%=      5-min Rain = 0
KTUR 260025Z 25007G12KT 21/16 A2994 RMK A01 T02060163  RH  078%=      5-min Rain = 0
KTUR 260030Z 26010G15KT 21/17 A2995 RMK A01 T02070165  RH  079%=      5-min Rain = 0
KTUR 260035Z 25013G18KT 20/17 A2996 RMK A01 T02040168  RH  082%=      5-min Rain = 0
KTUR 260040Z 26017G25KT 20/17 A2996 RMK A01 T02030167  RH  081%=      5-min Rain = 0
KTUR 260045Z 26022G31KT 20/16 A2995 RMK A01 T01990162  RH  081%=      5-min Rain = 0
KTUR 260050Z 27024G33KT 19/16 A2995 RMK A01 T01910158  RH  083%=      5-min Rain = 0
KTUR 260055Z 27021G29KT 19/15 A2996 RMK A01 T01860152  RH  082%=      5-min Rain = 0
KTUR 260100Z 27016G24KT 18/15 A2995 RMK A01 T01820149  RH  082%=      5-min Rain = 0
KTUR 260105Z 26010G16KT 19/15 A2994 RMK A01 T01900152  RH  081%=      5-min Rain = 0
KTUR 260110Z 29008KT 20/16 A2993 RMK A01 T01950157  RH  080%=      5-min Rain = 0
KTUR 260115Z 24006G12KT 20/16 A2993 RMK A01 T01990157  RH  079%=      5-min Rain = 0
KTUR 260120Z 25007KT 20/16 A2992 RMK A01 T02000156  RH  078%=      5-min Rain = 0
KTUR 260125Z 24005KT 20/16 A2991 RMK A01 T01990157  RH  079%=      5-min Rain = 0
KTUR 260130Z 23004KT 20/16 A2991 RMK A01 T01980159  RH  080%=      5-min Rain = 0
KTUR 260135Z 25005KT 20/16 A2991 RMK A01 T01970160  RH  081%=      5-min Rain = 0
KTUR 260140Z 24006KT 20/16 A2991 RMK A01 T01970159  RH  081%=      5-min Rain = 0
KTUR 260145Z 23007KT 20/16 A2991 RMK A01 T01960162  RH  083%=      5-min Rain = 0
KTUR 260150Z 23008KT 19/16 A2991 RMK A01 T01930162  RH  084%=      5-min Rain = 0
KTUR 260155Z 22008KT 19/16 A2991 RMK A01 T01920162  RH  085%=      5-min Rain = 0
KTUR 260200Z 21008KT 19/16 A299 RMK A01 T01900160  RH  085%=      5-min Rain = 0
KTUR 260205Z 21008KT 19/16 A299 RMK A01 T01880160  RH  086%=      5-min Rain = 0
KTUR 260210Z 20008KT 19/16 A299 RMK A01 T01880161  RH  086%=      5-min Rain = 0
KTUR 260215Z 20008KT 19/16 A299 RMK A01 T01870161  RH  087%=      5-min Rain = 0
KTUR 260220Z 19008KT 19/16 A299 RMK A01 T01870162  RH  088%=      5-min Rain = 0
KTUR 260225Z 20009KT 19/16 A299 RMK A01 T01860161  RH  088%=      5-min Rain = 0
KTUR 260230Z 19008KT 19/16 A299 RMK A01 T01850161  RH  088%=      5-min Rain = 0
KTUR 260235Z 20009KT 18/16 A2991 RMK A01 T01830161  RH  089%=      5-min Rain = 0
KTUR 260240Z 20009KT 18/16 A2991 RMK A01 T01820161  RH  089%=      5-min Rain = 0
KTUR 260245Z 19009KT 18/16 A299 RMK A01 T01820161  RH  089%=      5-min Rain = 0
KTUR 260250Z 19009KT 18/16 A2991 RMK A01 T01820162  RH  090%=      5-min Rain = 0
KTUR 260255Z 19008KT 18/16 A2991 RMK A01 T01810163  RH  091%=      5-min Rain = 0
KTUR 260300Z 18007KT 18/16 A2991 RMK A01 T01810163  RH  091%=      5-min Rain = 0
KTUR 260305Z 18007KT 18/16 A2991 RMK A01 T01810164  RH  092%=      5-min Rain = 0
KTUR 260310Z 18008KT 18/16 A2991 RMK A01 T01810163  RH  091%=      5-min Rain = 0
KTUR 260315Z 18008KT 18/16 A2991 RMK A01 T01820163  RH  090%=      5-min Rain = 0
KTUR 260320Z 17008KT 18/16 A2991 RMK A01 T01820162  RH  090%=      5-min Rain = 0
KTUR 260325Z 17006KT 18/16 A2991 RMK A01 T01820161  RH  090%=      5-min Rain = 0
KTUR 260330Z 17007KT 18/16 A2991 RMK A01 T01830161  RH  089%=      5-min Rain = 0
KTUR 260335Z 17006KT 18/16 A2991 RMK A01 T01840161  RH  088%=      5-min Rain = 0
KTUR 260340Z 17005KT 18/16 A2991 RMK A01 T01830161  RH  089%=      5-min Rain = 0
KTUR 260345Z 16005KT 18/16 A2992 RMK A01 T01820161  RH  089%=      5-min Rain = 0
KTUR 260350Z 14004KT 18/16 A2992 RMK A01 T01820160  RH  089%=      5-min Rain = 0
KTUR 260355Z 13004KT 18/16 A2992 RMK A01 T01810160  RH  090%=      5-min Rain = 0
KTUR 260400Z 12004KT 18/16 A2992 RMK A01 T01810160  RH  089%=      5-min Rain = 0
KTUR 260405Z 11004KT 18/16 A2993 RMK A01 T01800160  RH  090%=      5-min Rain = 0
KTUR 260410Z 10005KT 18/16 A2993 RMK A01 T01770159  RH  091%=      5-min Rain = 0
KTUR 260415Z 09006KT 18/16 A2993 RMK A01 T01760159  RH  092%=      5-min Rain = 0
KTUR 260420Z 08006KT 18/16 A2993 RMK A01 T01770159  RH  091%=      5-min Rain = 0
KTUR 260425Z 08006KT 18/16 A2993 RMK A01 T01760160  RH  092%=      5-min Rain = 0
KTUR 260430Z 07006KT 18/16 A2993 RMK A01 T01760160  RH  093%=      5-min Rain = 0
KTUR 260435Z 07007KT 18/16 A2993 RMK A01 T01760160  RH  092%=      5-min Rain = 0
KTUR 260440Z 07008KT 18/16 A2993 RMK A01 T01790160  RH  091%=      5-min Rain = 0
KTUR 260445Z 07008KT 18/16 A2993 RMK A01 T01800160  RH  090%=      5-min Rain = 0
KTUR 260450Z 07008KT 18/16 A2993 RMK A01 T01810160  RH  089%=      5-min Rain = 0
KTUR 260455Z 06007KT 18/16 A2993 RMK A01 T01820161  RH  089%=      5-min Rain = 0

Page generated in 0.013 seconds.